sensor_id;sensor_type;location;lat;lon;timestamp;P1;durP1;ratioP1;P2;durP2;ratioP2
60999;SDS011;46879;45.658;11.814;2023-10-09T00:02:18;15.85;;;9.48;;
60999;SDS011;46879;45.658;11.814;2023-10-09T00:07:18;10.95;;;8.77;;
60999;SDS011;46879;45.658;11.814;2023-10-09T00:12:20;13.63;;;8.63;;
60999;SDS011;46879;45.658;11.814;2023-10-09T00:17:25;16.52;;;9.40;;
60999;SDS011;46879;45.658;11.814;2023-10-09T00:22:31;18.38;;;9.07;;
60999;SDS011;46879;45.658;11.814;2023-10-09T00:27:38;14.63;;;8.95;;
60999;SDS011;46879;45.658;11.814;2023-10-09T00:32:42;13.88;;;9.43;;
60999;SDS011;46879;45.658;11.814;2023-10-09T00:37:50;17.83;;;9.95;;
60999;SDS011;46879;45.658;11.814;2023-10-09T00:42:55;18.65;;;9.35;;
60999;SDS011;46879;45.658;11.814;2023-10-09T00:47:55;16.63;;;9.38;;
60999;SDS011;46879;45.658;11.814;2023-10-09T00:52:58;13.48;;;9.40;;
60999;SDS011;46879;45.658;11.814;2023-10-09T00:58:03;18.23;;;9.00;;
60999;SDS011;46879;45.658;11.814;2023-10-09T01:03:11;17.13;;;9.82;;
60999;SDS011;46879;45.658;11.814;2023-10-09T01:08:17;14.55;;;9.35;;
60999;SDS011;46879;45.658;11.814;2023-10-09T01:13:41;14.02;;;10.20;;
60999;SDS011;46879;45.658;11.814;2023-10-09T01:18:45;16.10;;;9.88;;
60999;SDS011;46879;45.658;11.814;2023-10-09T01:23:49;19.40;;;9.80;;
60999;SDS011;46879;45.658;11.814;2023-10-09T01:29:09;13.65;;;9.32;;
60999;SDS011;46879;45.658;11.814;2023-10-09T01:34:30;17.33;;;9.68;;
60999;SDS011;46879;45.658;11.814;2023-10-09T01:39:45;21.50;;;10.50;;
60999;SDS011;46879;45.658;11.814;2023-10-09T01:44:48;13.70;;;9.77;;
60999;SDS011;46879;45.658;11.814;2023-10-09T01:49:48;16.73;;;10.07;;
60999;SDS011;46879;45.658;11.814;2023-10-09T01:54:50;19.48;;;10.10;;
60999;SDS011;46879;45.658;11.814;2023-10-09T01:59:52;16.17;;;10.00;;
60999;SDS011;46879;45.658;11.814;2023-10-09T02:04:56;13.57;;;10.38;;
60999;SDS011;46879;45.658;11.814;2023-10-09T02:10:14;14.90;;;10.30;;
60999;SDS011;46879;45.658;11.814;2023-10-09T02:15:30;21.95;;;10.43;;
60999;SDS011;46879;45.658;11.814;2023-10-09T02:20:46;16.08;;;9.85;;
60999;SDS011;46879;45.658;11.814;2023-10-09T02:26:00;19.33;;;9.82;;
60999;SDS011;46879;45.658;11.814;2023-10-09T02:31:09;19.38;;;10.25;;
60999;SDS011;46879;45.658;11.814;2023-10-09T02:36:11;14.20;;;9.60;;
60999;SDS011;46879;45.658;11.814;2023-10-09T02:41:13;14.50;;;9.93;;
60999;SDS011;46879;45.658;11.814;2023-10-09T02:46:14;17.58;;;10.63;;
60999;SDS011;46879;45.658;11.814;2023-10-09T02:51:25;16.98;;;10.52;;
60999;SDS011;46879;45.658;11.814;2023-10-09T03:01:39;17.15;;;11.13;;
60999;SDS011;46879;45.658;11.814;2023-10-09T03:06:41;14.15;;;10.50;;
60999;SDS011;46879;45.658;11.814;2023-10-09T03:11:51;19.20;;;9.82;;
60999;SDS011;46879;45.658;11.814;2023-10-09T03:16:53;16.60;;;10.70;;
60999;SDS011;46879;45.658;11.814;2023-10-09T03:21:54;17.35;;;11.35;;
60999;SDS011;46879;45.658;11.814;2023-10-09T03:26:57;15.73;;;10.52;;
60999;SDS011;46879;45.658;11.814;2023-10-09T03:31:58;14.48;;;11.10;;
60999;SDS011;46879;45.658;11.814;2023-10-09T03:37:00;16.85;;;11.25;;
60999;SDS011;46879;45.658;11.814;2023-10-09T03:42:20;16.77;;;10.70;;
60999;SDS011;46879;45.658;11.814;2023-10-09T03:47:22;17.42;;;11.75;;
60999;SDS011;46879;45.658;11.814;2023-10-09T03:52:23;21.23;;;11.23;;
60999;SDS011;46879;45.658;11.814;2023-10-09T03:57:27;18.95;;;10.90;;
60999;SDS011;46879;45.658;11.814;2023-10-09T04:02:28;15.75;;;10.75;;
60999;SDS011;46879;45.658;11.814;2023-10-09T04:07:29;17.00;;;11.63;;
60999;SDS011;46879;45.658;11.814;2023-10-09T04:12:31;19.92;;;10.80;;
60999;SDS011;46879;45.658;11.814;2023-10-09T04:17:33;18.50;;;11.48;;
60999;SDS011;46879;45.658;11.814;2023-10-09T04:22:38;15.43;;;11.15;;
60999;SDS011;46879;45.658;11.814;2023-10-09T04:27:42;15.63;;;10.32;;
60999;SDS011;46879;45.658;11.814;2023-10-09T04:32:44;16.85;;;10.82;;
60999;SDS011;46879;45.658;11.814;2023-10-09T04:37:45;16.15;;;11.48;;
60999;SDS011;46879;45.658;11.814;2023-10-09T04:42:52;17.67;;;11.18;;
60999;SDS011;46879;45.658;11.814;2023-10-09T04:47:59;18.52;;;11.32;;
60999;SDS011;46879;45.658;11.814;2023-10-09T04:53:06;19.42;;;12.40;;
60999;SDS011;46879;45.658;11.814;2023-10-09T04:58:16;18.98;;;12.80;;
60999;SDS011;46879;45.658;11.814;2023-10-09T05:03:24;26.02;;;13.07;;
60999;SDS011;46879;45.658;11.814;2023-10-09T05:08:26;19.35;;;13.13;;
60999;SDS011;46879;45.658;11.814;2023-10-09T05:13:30;30.65;;;12.10;;
60999;SDS011;46879;45.658;11.814;2023-10-09T05:18:40;16.42;;;11.70;;
60999;SDS011;46879;45.658;11.814;2023-10-09T05:23:41;15.40;;;10.70;;
60999;SDS011;46879;45.658;11.814;2023-10-09T05:29:12;19.08;;;11.05;;
60999;SDS011;46879;45.658;11.814;2023-10-09T05:34:19;15.48;;;10.20;;
60999;SDS011;46879;45.658;11.814;2023-10-09T05:39:21;15.20;;;10.20;;
60999;SDS011;46879;45.658;11.814;2023-10-09T05:44:40;15.90;;;9.95;;
60999;SDS011;46879;45.658;11.814;2023-10-09T05:50:28;14.20;;;9.30;;
60999;SDS011;46879;45.658;11.814;2023-10-09T05:55:30;13.45;;;8.65;;
60999;SDS011;46879;45.658;11.814;2023-10-09T06:00:50;10.27;;;7.82;;
60999;SDS011;46879;45.658;11.814;2023-10-09T06:06:06;13.05;;;9.05;;
60999;SDS011;46879;45.658;11.814;2023-10-09T06:11:08;10.85;;;7.65;;
60999;SDS011;46879;45.658;11.814;2023-10-09T06:16:30;10.25;;;7.85;;
60999;SDS011;46879;45.658;11.814;2023-10-09T06:21:54;15.82;;;6.80;;
60999;SDS011;46879;45.658;11.814;2023-10-09T06:27:12;10.23;;;7.28;;
60999;SDS011;46879;45.658;11.814;2023-10-09T06:32:12;10.30;;;6.85;;
60999;SDS011;46879;45.658;11.814;2023-10-09T06:37:19;8.52;;;6.53;;
60999;SDS011;46879;45.658;11.814;2023-10-09T06:42:26;10.85;;;7.30;;
60999;SDS011;46879;45.658;11.814;2023-10-09T06:47:33;9.63;;;7.25;;
60999;SDS011;46879;45.658;11.814;2023-10-09T06:52:41;11.33;;;6.23;;
60999;SDS011;46879;45.658;11.814;2023-10-09T06:58:07;8.23;;;6.57;;
60999;SDS011;46879;45.658;11.814;2023-10-09T07:03:15;11.37;;;6.40;;
60999;SDS011;46879;45.658;11.814;2023-10-09T07:08:19;9.27;;;6.60;;
60999;SDS011;46879;45.658;11.814;2023-10-09T07:13:32;9.60;;;6.63;;
60999;SDS011;46879;45.658;11.814;2023-10-09T07:18:37;19.90;;;6.63;;
60999;SDS011;46879;45.658;11.814;2023-10-09T07:23:49;7.18;;;6.07;;
60999;SDS011;46879;45.658;11.814;2023-10-09T07:28:55;13.75;;;6.10;;
60999;SDS011;46879;45.658;11.814;2023-10-09T07:34:01;9.70;;;6.72;;
60999;SDS011;46879;45.658;11.814;2023-10-09T07:39:07;8.70;;;5.82;;
60999;SDS011;46879;45.658;11.814;2023-10-09T07:44:15;11.25;;;6.43;;
60999;SDS011;46879;45.658;11.814;2023-10-09T07:49:36;12.45;;;6.80;;
60999;SDS011;46879;45.658;11.814;2023-10-09T07:54:37;8.10;;;6.07;;
60999;SDS011;46879;45.658;11.814;2023-10-09T07:59:49;9.48;;;6.90;;
60999;SDS011;46879;45.658;11.814;2023-10-09T08:05:01;15.40;;;7.22;;
60999;SDS011;46879;45.658;11.814;2023-10-09T08:15:19;12.47;;;6.90;;
60999;SDS011;46879;45.658;11.814;2023-10-09T08:20:23;9.60;;;6.75;;
60999;SDS011;46879;45.658;11.814;2023-10-09T08:25:25;11.45;;;6.80;;
60999;SDS011;46879;45.658;11.814;2023-10-09T08:30:26;13.95;;;6.80;;
60999;SDS011;46879;45.658;11.814;2023-10-09T08:35:30;15.10;;;6.93;;
60999;SDS011;46879;45.658;11.814;2023-10-09T08:40:47;9.13;;;6.53;;
60999;SDS011;46879;45.658;11.814;2023-10-09T08:45:54;12.25;;;6.90;;
60999;SDS011;46879;45.658;11.814;2023-10-09T08:51:02;10.55;;;6.43;;
60999;SDS011;46879;45.658;11.814;2023-10-09T08:56:07;9.35;;;6.22;;
60999;SDS011;46879;45.658;11.814;2023-10-09T09:01:07;8.95;;;6.20;;
60999;SDS011;46879;45.658;11.814;2023-10-09T09:06:08;10.00;;;6.57;;
60999;SDS011;46879;45.658;11.814;2023-10-09T09:11:10;7.63;;;6.05;;
60999;SDS011;46879;45.658;11.814;2023-10-09T09:16:21;9.00;;;5.45;;
60999;SDS011;46879;45.658;11.814;2023-10-09T09:21:30;7.53;;;5.55;;
60999;SDS011;46879;45.658;11.814;2023-10-09T09:26:45;11.18;;;6.25;;
60999;SDS011;46879;45.658;11.814;2023-10-09T09:31:52;10.65;;;6.57;;
60999;SDS011;46879;45.658;11.814;2023-10-09T09:36:55;14.13;;;6.50;;
60999;SDS011;46879;45.658;11.814;2023-10-09T09:41:58;12.30;;;6.18;;
60999;SDS011;46879;45.658;11.814;2023-10-09T09:47:30;18.55;;;6.38;;
60999;SDS011;46879;45.658;11.814;2023-10-09T09:52:35;9.02;;;5.97;;
60999;SDS011;46879;45.658;11.814;2023-10-09T09:57:39;8.38;;;5.55;;
60999;SDS011;46879;45.658;11.814;2023-10-09T10:02:41;10.27;;;6.30;;
60999;SDS011;46879;45.658;11.814;2023-10-09T10:07:43;8.52;;;6.53;;
60999;SDS011;46879;45.658;11.814;2023-10-09T10:12:49;18.70;;;5.68;;
60999;SDS011;46879;45.658;11.814;2023-10-09T10:23:16;9.23;;;6.28;;
60999;SDS011;46879;45.658;11.814;2023-10-09T10:28:26;10.13;;;6.05;;
60999;SDS011;46879;45.658;11.814;2023-10-09T10:39:11;8.07;;;6.22;;
60999;SDS011;46879;45.658;11.814;2023-10-09T10:49:43;9.45;;;6.10;;
60999;SDS011;46879;45.658;11.814;2023-10-09T10:54:45;7.32;;;5.60;;
60999;SDS011;46879;45.658;11.814;2023-10-09T10:59:46;6.80;;;5.82;;
60999;SDS011;46879;45.658;11.814;2023-10-09T11:04:49;11.50;;;5.68;;
60999;SDS011;46879;45.658;11.814;2023-10-09T11:09:55;9.82;;;5.70;;
60999;SDS011;46879;45.658;11.814;2023-10-09T11:15:06;11.45;;;7.10;;
60999;SDS011;46879;45.658;11.814;2023-10-09T11:20:28;10.38;;;6.97;;
60999;SDS011;46879;45.658;11.814;2023-10-09T11:25:32;10.35;;;6.45;;
60999;SDS011;46879;45.658;11.814;2023-10-09T11:30:34;8.88;;;6.43;;
60999;SDS011;46879;45.658;11.814;2023-10-09T11:35:34;9.85;;;6.70;;
60999;SDS011;46879;45.658;11.814;2023-10-09T11:40:36;12.95;;;6.57;;
60999;SDS011;46879;45.658;11.814;2023-10-09T11:45:51;10.40;;;7.25;;
60999;SDS011;46879;45.658;11.814;2023-10-09T11:50:55;12.95;;;7.50;;
60999;SDS011;46879;45.658;11.814;2023-10-09T11:56:13;13.30;;;7.47;;
60999;SDS011;46879;45.658;11.814;2023-10-09T12:01:16;19.55;;;8.13;;
60999;SDS011;46879;45.658;11.814;2023-10-09T12:06:20;11.20;;;7.80;;
60999;SDS011;46879;45.658;11.814;2023-10-09T12:11:32;15.75;;;8.20;;
60999;SDS011;46879;45.658;11.814;2023-10-09T12:16:33;13.73;;;7.95;;
60999;SDS011;46879;45.658;11.814;2023-10-09T12:21:33;12.50;;;8.27;;
60999;SDS011;46879;45.658;11.814;2023-10-09T12:26:35;14.18;;;8.10;;
60999;SDS011;46879;45.658;11.814;2023-10-09T12:31:38;13.68;;;9.18;;
60999;SDS011;46879;45.658;11.814;2023-10-09T12:36:38;13.93;;;7.95;;
60999;SDS011;46879;45.658;11.814;2023-10-09T12:41:39;12.25;;;7.80;;
60999;SDS011;46879;45.658;11.814;2023-10-09T12:46:41;13.73;;;8.32;;
60999;SDS011;46879;45.658;11.814;2023-10-09T12:51:47;12.10;;;7.75;;
60999;SDS011;46879;45.658;11.814;2023-10-09T12:56:48;12.95;;;8.48;;
60999;SDS011;46879;45.658;11.814;2023-10-09T13:01:50;10.88;;;7.38;;
60999;SDS011;46879;45.658;11.814;2023-10-09T13:06:57;14.18;;;8.30;;
60999;SDS011;46879;45.658;11.814;2023-10-09T13:12:02;12.45;;;7.75;;
60999;SDS011;46879;45.658;11.814;2023-10-09T13:17:03;13.27;;;8.18;;
60999;SDS011;46879;45.658;11.814;2023-10-09T13:22:09;13.10;;;7.32;;
60999;SDS011;46879;45.658;11.814;2023-10-09T13:27:12;14.82;;;7.95;;
60999;SDS011;46879;45.658;11.814;2023-10-09T13:32:18;9.68;;;7.20;;
60999;SDS011;46879;45.658;11.814;2023-10-09T13:37:20;13.50;;;7.53;;
60999;SDS011;46879;45.658;11.814;2023-10-09T13:42:22;12.43;;;7.72;;
60999;SDS011;46879;45.658;11.814;2023-10-09T13:47:26;10.18;;;7.15;;
60999;SDS011;46879;45.658;11.814;2023-10-09T13:52:31;11.98;;;7.47;;
60999;SDS011;46879;45.658;11.814;2023-10-09T13:57:32;14.00;;;7.30;;
60999;SDS011;46879;45.658;11.814;2023-10-09T14:02:33;16.50;;;8.27;;
60999;SDS011;46879;45.658;11.814;2023-10-09T14:07:33;11.82;;;7.55;;
60999;SDS011;46879;45.658;11.814;2023-10-09T14:12:34;14.02;;;7.70;;
60999;SDS011;46879;45.658;11.814;2023-10-09T14:17:39;19.33;;;7.93;;
60999;SDS011;46879;45.658;11.814;2023-10-09T14:22:42;11.18;;;8.20;;
60999;SDS011;46879;45.658;11.814;2023-10-09T14:27:43;12.23;;;8.27;;
60999;SDS011;46879;45.658;11.814;2023-10-09T14:32:44;9.68;;;7.63;;
60999;SDS011;46879;45.658;11.814;2023-10-09T14:37:51;9.75;;;7.43;;
60999;SDS011;46879;45.658;11.814;2023-10-09T14:42:53;14.13;;;7.68;;
60999;SDS011;46879;45.658;11.814;2023-10-09T14:47:54;13.43;;;7.57;;
60999;SDS011;46879;45.658;11.814;2023-10-09T14:52:54;22.30;;;8.65;;
60999;SDS011;46879;45.658;11.814;2023-10-09T14:57:55;12.18;;;8.32;;
60999;SDS011;46879;45.658;11.814;2023-10-09T15:02:56;13.50;;;8.57;;
60999;SDS011;46879;45.658;11.814;2023-10-09T15:07:56;12.82;;;8.43;;
60999;SDS011;46879;45.658;11.814;2023-10-09T15:12:57;9.82;;;6.97;;
60999;SDS011;46879;45.658;11.814;2023-10-09T15:18:00;13.43;;;8.98;;
60999;SDS011;46879;45.658;11.814;2023-10-09T15:23:03;10.88;;;8.05;;
60999;SDS011;46879;45.658;11.814;2023-10-09T15:28:06;11.55;;;8.00;;
60999;SDS011;46879;45.658;11.814;2023-10-09T15:33:09;9.52;;;8.20;;
60999;SDS011;46879;45.658;11.814;2023-10-09T15:38:11;14.05;;;8.32;;
60999;SDS011;46879;45.658;11.814;2023-10-09T15:43:13;8.55;;;7.30;;
60999;SDS011;46879;45.658;11.814;2023-10-09T15:48:14;14.15;;;8.77;;
60999;SDS011;46879;45.658;11.814;2023-10-09T15:53:15;19.25;;;12.55;;
60999;SDS011;46879;45.658;11.814;2023-10-09T15:58:18;26.52;;;12.95;;
60999;SDS011;46879;45.658;11.814;2023-10-09T16:03:20;24.70;;;14.93;;
60999;SDS011;46879;45.658;11.814;2023-10-09T16:08:20;23.85;;;13.68;;
60999;SDS011;46879;45.658;11.814;2023-10-09T16:13:22;51.38;;;18.20;;
60999;SDS011;46879;45.658;11.814;2023-10-09T16:18:23;27.63;;;15.52;;
60999;SDS011;46879;45.658;11.814;2023-10-09T16:23:24;37.90;;;17.35;;
60999;SDS011;46879;45.658;11.814;2023-10-09T16:28:27;29.42;;;16.83;;
60999;SDS011;46879;45.658;11.814;2023-10-09T16:33:28;25.70;;;15.55;;
60999;SDS011;46879;45.658;11.814;2023-10-09T16:38:29;31.65;;;16.17;;
60999;SDS011;46879;45.658;11.814;2023-10-09T16:43:29;24.83;;;14.63;;
60999;SDS011;46879;45.658;11.814;2023-10-09T16:48:30;32.53;;;14.93;;
60999;SDS011;46879;45.658;11.814;2023-10-09T16:53:30;26.85;;;15.60;;
60999;SDS011;46879;45.658;11.814;2023-10-09T16:58:31;18.95;;;13.18;;
60999;SDS011;46879;45.658;11.814;2023-10-09T17:03:32;20.45;;;13.88;;
60999;SDS011;46879;45.658;11.814;2023-10-09T17:08:34;28.83;;;13.70;;
60999;SDS011;46879;45.658;11.814;2023-10-09T17:13:39;21.33;;;13.05;;
60999;SDS011;46879;45.658;11.814;2023-10-09T17:18:49;20.65;;;12.60;;
60999;SDS011;46879;45.658;11.814;2023-10-09T17:23:54;18.08;;;12.40;;
60999;SDS011;46879;45.658;11.814;2023-10-09T17:28:55;19.55;;;12.57;;
60999;SDS011;46879;45.658;11.814;2023-10-09T17:33:56;24.50;;;11.98;;
60999;SDS011;46879;45.658;11.814;2023-10-09T17:38:57;17.52;;;12.05;;
60999;SDS011;46879;45.658;11.814;2023-10-09T17:44:03;14.45;;;11.05;;
60999;SDS011;46879;45.658;11.814;2023-10-09T17:49:04;22.20;;;11.10;;
60999;SDS011;46879;45.658;11.814;2023-10-09T17:54:06;18.13;;;11.35;;
60999;SDS011;46879;45.658;11.814;2023-10-09T17:59:09;14.38;;;11.13;;
60999;SDS011;46879;45.658;11.814;2023-10-09T18:04:11;16.50;;;10.57;;
60999;SDS011;46879;45.658;11.814;2023-10-09T18:09:13;20.42;;;10.40;;
60999;SDS011;46879;45.658;11.814;2023-10-09T18:14:17;18.80;;;11.02;;
60999;SDS011;46879;45.658;11.814;2023-10-09T18:19:17;17.90;;;10.20;;
60999;SDS011;46879;45.658;11.814;2023-10-09T18:24:20;25.52;;;11.48;;
60999;SDS011;46879;45.658;11.814;2023-10-09T18:29:23;20.52;;;10.50;;
60999;SDS011;46879;45.658;11.814;2023-10-09T18:34:24;21.60;;;11.50;;
60999;SDS011;46879;45.658;11.814;2023-10-09T18:39:26;22.77;;;10.88;;
60999;SDS011;46879;45.658;11.814;2023-10-09T18:44:27;19.33;;;10.75;;
60999;SDS011;46879;45.658;11.814;2023-10-09T18:49:29;20.60;;;10.98;;
60999;SDS011;46879;45.658;11.814;2023-10-09T18:54:29;16.17;;;10.00;;
60999;SDS011;46879;45.658;11.814;2023-10-09T18:59:30;16.48;;;9.73;;
60999;SDS011;46879;45.658;11.814;2023-10-09T19:04:31;18.67;;;9.93;;
60999;SDS011;46879;45.658;11.814;2023-10-09T19:09:32;14.32;;;9.63;;
60999;SDS011;46879;45.658;11.814;2023-10-09T19:14:33;20.70;;;10.32;;
60999;SDS011;46879;45.658;11.814;2023-10-09T19:19:35;14.68;;;10.45;;
60999;SDS011;46879;45.658;11.814;2023-10-09T19:24:36;17.13;;;9.65;;
60999;SDS011;46879;45.658;11.814;2023-10-09T19:29:37;13.05;;;9.32;;
60999;SDS011;46879;45.658;11.814;2023-10-09T19:34:37;16.52;;;10.02;;
60999;SDS011;46879;45.658;11.814;2023-10-09T19:39:38;13.63;;;10.00;;
60999;SDS011;46879;45.658;11.814;2023-10-09T19:44:43;12.63;;;8.73;;
60999;SDS011;46879;45.658;11.814;2023-10-09T19:49:43;12.27;;;9.50;;
60999;SDS011;46879;45.658;11.814;2023-10-09T19:54:45;12.20;;;9.30;;
60999;SDS011;46879;45.658;11.814;2023-10-09T19:59:46;13.50;;;9.65;;
60999;SDS011;46879;45.658;11.814;2023-10-09T20:04:48;15.75;;;9.13;;
60999;SDS011;46879;45.658;11.814;2023-10-09T20:09:50;14.82;;;9.30;;
60999;SDS011;46879;45.658;11.814;2023-10-09T20:14:50;15.82;;;9.25;;
60999;SDS011;46879;45.658;11.814;2023-10-09T20:19:52;13.40;;;9.45;;
60999;SDS011;46879;45.658;11.814;2023-10-09T20:24:53;12.65;;;8.93;;
60999;SDS011;46879;45.658;11.814;2023-10-09T20:29:54;12.07;;;8.93;;
60999;SDS011;46879;45.658;11.814;2023-10-09T20:34:56;12.50;;;9.07;;
60999;SDS011;46879;45.658;11.814;2023-10-09T20:39:57;12.70;;;8.73;;
60999;SDS011;46879;45.658;11.814;2023-10-09T20:44:58;13.63;;;9.40;;
60999;SDS011;46879;45.658;11.814;2023-10-09T20:50:00;13.65;;;9.27;;
60999;SDS011;46879;45.658;11.814;2023-10-09T20:55:01;14.18;;;8.48;;
60999;SDS011;46879;45.658;11.814;2023-10-09T21:00:02;13.90;;;8.32;;
60999;SDS011;46879;45.658;11.814;2023-10-09T21:05:03;12.18;;;8.38;;
60999;SDS011;46879;45.658;11.814;2023-10-09T21:10:05;13.70;;;8.48;;
60999;SDS011;46879;45.658;11.814;2023-10-09T21:15:06;23.38;;;8.20;;
60999;SDS011;46879;45.658;11.814;2023-10-09T21:20:10;16.48;;;9.10;;
60999;SDS011;46879;45.658;11.814;2023-10-09T21:25:19;24.88;;;9.93;;
60999;SDS011;46879;45.658;11.814;2023-10-09T21:30:20;17.00;;;10.93;;
60999;SDS011;46879;45.658;11.814;2023-10-09T21:35:23;18.98;;;11.07;;
60999;SDS011;46879;45.658;11.814;2023-10-09T21:40:28;13.55;;;10.20;;
60999;SDS011;46879;45.658;11.814;2023-10-09T21:45:29;18.30;;;10.77;;
60999;SDS011;46879;45.658;11.814;2023-10-09T21:50:29;21.08;;;11.27;;
60999;SDS011;46879;45.658;11.814;2023-10-09T21:55:30;19.50;;;10.32;;
60999;SDS011;46879;45.658;11.814;2023-10-09T22:00:31;20.52;;;12.00;;
60999;SDS011;46879;45.658;11.814;2023-10-09T22:05:38;19.00;;;11.32;;
60999;SDS011;46879;45.658;11.814;2023-10-09T22:10:42;23.10;;;11.98;;
60999;SDS011;46879;45.658;11.814;2023-10-09T22:15:44;20.10;;;11.27;;
60999;SDS011;46879;45.658;11.814;2023-10-09T22:20:48;22.45;;;12.05;;
60999;SDS011;46879;45.658;11.814;2023-10-09T22:25:53;19.23;;;11.35;;
60999;SDS011;46879;45.658;11.814;2023-10-09T22:31:03;18.38;;;11.48;;
60999;SDS011;46879;45.658;11.814;2023-10-09T22:36:05;17.92;;;11.00;;
60999;SDS011;46879;45.658;11.814;2023-10-09T22:41:10;19.55;;;11.77;;
60999;SDS011;46879;45.658;11.814;2023-10-09T22:46:10;18.73;;;11.45;;
60999;SDS011;46879;45.658;11.814;2023-10-09T22:51:13;20.90;;;12.77;;
60999;SDS011;46879;45.658;11.814;2023-10-09T22:56:13;17.70;;;11.68;;
60999;SDS011;46879;45.658;11.814;2023-10-09T23:01:16;15.70;;;11.35;;
60999;SDS011;46879;45.658;11.814;2023-10-09T23:06:28;19.85;;;11.95;;
60999;SDS011;46879;45.658;11.814;2023-10-09T23:11:33;22.52;;;11.68;;
60999;SDS011;46879;45.658;11.814;2023-10-09T23:16:34;18.50;;;12.50;;
60999;SDS011;46879;45.658;11.814;2023-10-09T23:21:48;22.20;;;11.88;;
60999;SDS011;46879;45.658;11.814;2023-10-09T23:27:27;19.80;;;11.85;;
60999;SDS011;46879;45.658;11.814;2023-10-09T23:32:40;19.73;;;11.32;;
60999;SDS011;46879;45.658;11.814;2023-10-09T23:37:52;22.42;;;11.25;;
60999;SDS011;46879;45.658;11.814;2023-10-09T23:43:12;20.70;;;11.18;;
60999;SDS011;46879;45.658;11.814;2023-10-09T23:48:14;21.48;;;12.18;;
60999;SDS011;46879;45.658;11.814;2023-10-09T23:53:15;17.05;;;12.23;;
60999;SDS011;46879;45.658;11.814;2023-10-09T23:58:17;19.00;;;10.73;;
